Terminal Aerodrome Forecast
Issued by NWS Houston/Galveston TX

Home | Current Version | Previous Version | Text Only | Print | Product List | Glossary On
Versions: 1 2 3 4 5 6 7 8 9 10 11 12 13 14 15 16 17 18 19 20 21 22 23 24 25 26 27 28
000
FTUS44 KHGX 201720
TAFHOU
TAF
KHOU 201720Z 2018/2118 09010KT P6SM BKN250
     FM210100 09007KT P6SM SCT180 BKN250
     FM210900 11008KT P6SM BKN025
     FM211200 09009KT P6SM VCSH SCT008 BKN015 OVC025
     FM211600 12011KT P6SM SCT015 BKN025 BKN060=

USA.gov is the U.S. government's official web portal to all federal, state and local government web resources and services.